createdAt,value
2019-03-04T00:02:07.187Z,51.00
2019-03-04T00:04:35.732Z,51.00
2019-03-04T00:07:04.398Z,51.05
2019-03-04T00:09:33.017Z,51.05
2019-03-04T00:12:01.631Z,50.88
2019-03-04T00:14:30.289Z,49.48
2019-03-04T00:16:58.921Z,49.48
2019-03-04T00:19:27.547Z,49.01
2019-03-04T00:21:56.201Z,50.50
2019-03-04T00:24:24.812Z,52.77
2019-03-04T00:26:53.439Z,50.06
2019-03-04T00:29:22.100Z,50.27
2019-03-04T00:31:50.724Z,51.21
2019-03-04T00:34:19.346Z,51.24
2019-03-04T00:36:48.011Z,49.97
2019-03-04T00:39:16.557Z,50.16
2019-03-04T00:41:45.173Z,48.83
2019-03-04T00:44:13.833Z,49.56
2019-03-04T00:46:42.451Z,50.03
2019-03-04T00:49:11.072Z,48.38
2019-03-04T00:51:39.729Z,48.69
2019-03-04T00:54:08.359Z,48.69
2019-03-04T00:56:36.974Z,52.05
2019-03-04T00:59:05.633Z,54.07
2019-03-04T01:01:34.255Z,52.31
2019-03-04T01:04:02.952Z,51.41
2019-03-04T01:06:31.616Z,50.17
2019-03-04T01:09:00.236Z,51.53
2019-03-04T01:11:28.854Z,51.37
2019-03-04T01:13:57.532Z,51.37
2019-03-04T01:16:26.153Z,50.99
2019-03-04T01:18:54.784Z,50.74
2019-03-04T01:21:23.445Z,52.37
2019-03-04T01:23:52.057Z,52.16
2019-03-04T01:26:20.680Z,53.33
2019-03-04T01:28:49.331Z,53.89
2019-03-04T01:31:17.941Z,53.30
2019-03-04T01:33:46.564Z,52.04
2019-03-04T01:36:15.229Z,51.68
2019-03-04T01:38:43.781Z,51.95
2019-03-04T01:41:12.397Z,51.80
2019-03-04T01:43:41.899Z,52.21
2019-03-04T01:46:10.578Z,51.23
2019-03-04T01:48:39.219Z,52.53
2019-03-04T01:51:07.818Z,52.16
2019-03-04T01:53:36.438Z,51.08
2019-03-04T01:56:05.054Z,52.67
2019-03-04T01:58:33.708Z,51.73
2019-03-04T02:01:02.332Z,52.11
2019-03-04T02:03:30.950Z,52.75
2019-03-04T02:05:59.605Z,52.38
2019-03-04T02:08:28.237Z,52.21
2019-03-04T02:10:56.870Z,50.91
2019-03-04T02:13:25.538Z,53.14
2019-03-04T02:15:54.289Z,52.85
2019-03-04T02:18:22.910Z,53.29
2019-03-04T02:20:51.571Z,53.00
2019-03-04T02:23:20.207Z,49.95
2019-03-04T02:25:51.743Z,48.88
2019-03-04T02:28:20.469Z,47.64
2019-03-04T02:30:49.096Z,49.43
2019-03-04T02:33:17.722Z,50.09
2019-03-04T02:38:46.584Z,48.35
2019-03-04T02:41:15.217Z,49.96
2019-03-04T02:43:43.866Z,50.89
2019-03-04T02:46:13.341Z,56.19
2019-03-04T02:48:41.963Z,55.02
2019-03-04T02:51:10.591Z,52.35
2019-03-04T02:53:39.261Z,51.22
2019-03-04T02:56:07.894Z,50.82
2019-03-04T02:58:36.522Z,51.01
2019-03-04T03:01:05.266Z,51.57
2019-03-04T03:03:33.893Z,50.55
2019-03-04T03:06:02.529Z,50.39
2019-03-04T03:08:31.183Z,49.62
2019-03-04T03:10:59.814Z,49.16
2019-03-04T03:13:28.452Z,50.17
2019-03-04T03:15:57.090Z,51.53
2019-03-04T03:18:25.701Z,51.14
2019-03-04T03:20:54.339Z,50.16
2019-03-04T03:23:22.999Z,50.17
2019-03-04T03:25:51.631Z,51.50
2019-03-04T03:28:20.256Z,52.98
2019-03-04T03:30:48.910Z,51.88
2019-03-04T03:33:17.530Z,55.03
2019-03-04T03:35:46.145Z,59.91
2019-03-04T03:38:14.814Z,58.74
2019-03-04T03:40:43.435Z,56.37
2019-03-04T03:43:12.065Z,55.24
2019-03-04T03:45:40.711Z,53.26
2019-03-04T03:48:09.339Z,52.55
2019-03-04T03:50:37.950Z,51.85
2019-03-04T03:53:06.605Z,51.52
2019-03-04T03:55:35.228Z,51.94
2019-03-04T03:58:03.853Z,55.26
2019-03-04T04:00:32.523Z,53.65
2019-03-04T04:03:01.135Z,52.12
2019-03-04T04:05:29.751Z,52.26
2019-03-04T04:07:58.414Z,53.75
2019-03-04T04:10:27.035Z,53.17
2019-03-04T04:12:55.657Z,52.13
2019-03-04T04:15:24.314Z,51.52
2019-03-04T04:17:52.932Z,50.22
2019-03-04T04:20:21.548Z,49.70
2019-03-04T04:22:50.199Z,49.25
2019-03-04T04:25:18.826Z,50.16
2019-03-04T04:27:47.453Z,49.21
2019-03-04T04:30:18.749Z,49.29
2019-03-04T04:32:47.383Z,51.41
2019-03-04T04:35:15.987Z,51.45
2019-03-04T04:37:44.663Z,49.83
2019-03-04T04:40:16.190Z,49.49
2019-03-04T04:42:44.805Z,49.37
2019-03-04T04:45:13.450Z,49.03
2019-03-04T04:47:43.177Z,49.27
2019-03-04T04:50:17.692Z,48.90
2019-03-04T04:52:46.319Z,48.73
2019-03-04T04:55:14.938Z,49.43
2019-03-04T04:57:43.593Z,48.61
2019-03-04T05:00:14.594Z,49.35
2019-03-04T05:02:43.212Z,49.30
2019-03-04T05:05:11.872Z,48.96
2019-03-04T05:07:40.502Z,48.72
2019-03-04T05:10:22.635Z,48.64
2019-03-04T05:12:51.246Z,48.56
2019-03-04T05:15:20.064Z,49.12
2019-03-04T05:17:48.728Z,48.68
2019-03-04T05:20:26.886Z,48.98
2019-03-04T05:22:55.466Z,48.57
2019-03-04T05:25:24.096Z,48.29
2019-03-04T05:27:52.718Z,48.61
2019-03-04T05:30:22.272Z,48.55
2019-03-04T05:32:50.900Z,48.46
2019-03-04T05:35:19.523Z,48.80
2019-03-04T05:37:48.198Z,48.40
2019-03-04T05:40:18.700Z,48.65
2019-03-04T05:42:47.535Z,48.82
2019-03-04T05:45:19.451Z,49.10
2019-03-04T05:47:48.064Z,48.95
2019-03-04T05:50:25.108Z,48.62
2019-03-04T05:52:53.726Z,48.55
2019-03-04T05:55:23.455Z,49.01
2019-03-04T05:57:52.113Z,49.00
2019-03-04T06:00:23.106Z,48.93
2019-03-04T06:02:53.981Z,49.27
2019-03-04T06:05:22.643Z,49.48
2019-03-04T06:07:52.908Z,49.18
2019-03-04T06:10:21.538Z,49.76
2019-03-04T06:12:50.203Z,49.57
2019-03-04T06:15:22.081Z,51.52
2019-03-04T06:17:50.706Z,54.59
2019-03-04T06:20:20.349Z,52.50
2019-03-04T06:22:48.974Z,53.25
2019-03-04T06:25:20.508Z,52.89
2019-03-04T06:27:49.169Z,51.62
2019-03-04T06:30:20.326Z,53.80
2019-03-04T06:32:48.963Z,54.70
2019-03-04T06:35:17.618Z,52.80
2019-03-04T06:37:46.243Z,52.88
2019-03-04T06:40:16.837Z,52.71
2019-03-04T06:42:45.609Z,54.84
2019-03-04T06:45:16.472Z,54.76
2019-03-04T06:47:45.190Z,51.96
2019-03-04T06:50:45.552Z,53.07
2019-03-04T06:53:17.016Z,52.31
2019-03-04T06:55:51.518Z,53.10
2019-03-04T06:58:20.145Z,51.11
2019-03-04T07:00:51.079Z,51.84
2019-03-04T07:03:21.042Z,50.98
2019-03-04T07:05:50.631Z,51.74
2019-03-04T07:08:40.299Z,53.08
2019-03-04T07:11:08.922Z,52.00
2019-03-04T07:13:37.548Z,51.97
2019-03-04T07:16:06.226Z,53.56
2019-03-04T07:18:34.854Z,52.17
2019-03-04T07:21:03.471Z,52.33
2019-03-04T07:23:32.123Z,51.27
2019-03-04T07:26:00.748Z,51.72
2019-03-04T07:28:29.373Z,51.96
2019-03-04T07:30:58.032Z,49.84
2019-03-04T07:33:26.649Z,48.83
2019-03-04T07:35:55.277Z,51.21
2019-03-04T07:38:26.847Z,51.21
2019-03-04T07:40:55.476Z,51.66
2019-03-04T07:43:24.082Z,51.12
2019-03-04T07:45:52.742Z,51.12
2019-03-04T07:48:21.395Z,49.40
2019-03-04T07:50:49.992Z,49.96
2019-03-04T07:53:19.191Z,48.22
2019-03-04T07:55:47.891Z,47.89
2019-03-04T07:58:16.496Z,47.89
2019-03-04T08:00:45.216Z,47.69
2019-03-04T08:03:13.846Z,48.28
2019-03-04T08:05:42.473Z,47.09
2019-03-04T08:08:13.039Z,46.87
2019-03-04T08:11:15.975Z,47.20
2019-03-04T08:13:56.348Z,49.46
2019-03-04T08:16:24.972Z,47.19
2019-03-04T08:18:53.603Z,47.49
2019-03-04T08:21:22.275Z,47.49
2019-03-04T08:23:50.904Z,46.00
2019-03-04T08:26:19.539Z,46.00
2019-03-04T08:28:48.200Z,44.85
2019-03-04T08:31:16.827Z,44.85
2019-03-04T08:33:45.455Z,47.49
2019-03-04T08:36:14.112Z,48.17
2019-03-04T08:38:42.747Z,46.31
2019-03-04T08:41:11.379Z,45.32
2019-03-04T08:43:40.043Z,45.37
2019-03-04T08:46:08.674Z,45.47
2019-03-04T08:48:37.308Z,45.19
2019-03-04T08:51:05.976Z,43.82
2019-03-04T08:53:35.438Z,43.76
2019-03-04T08:56:04.068Z,43.29
2019-03-04T08:58:34.365Z,43.32
2019-03-04T09:01:03.154Z,42.88
2019-03-04T09:03:31.770Z,44.79
2019-03-04T09:06:00.438Z,44.15
2019-03-04T09:08:29.067Z,43.43
2019-03-04T09:10:57.691Z,42.06
2019-03-04T09:13:26.358Z,42.83
2019-03-04T09:15:54.987Z,43.15
2019-03-04T09:18:23.613Z,42.51
2019-03-04T09:20:52.275Z,41.74
2019-03-04T09:23:20.908Z,41.19
2019-03-04T09:25:55.214Z,41.15
2019-03-04T09:28:23.887Z,40.62
2019-03-04T09:30:52.519Z,41.86
2019-03-04T09:33:21.231Z,40.92
2019-03-04T09:35:49.898Z,40.92
2019-03-04T09:38:18.527Z,40.19
2019-03-04T09:40:47.169Z,40.57
2019-03-04T09:43:15.828Z,42.06
2019-03-04T09:45:44.459Z,41.66
2019-03-04T09:48:13.081Z,41.09
2019-03-04T09:50:41.750Z,38.00
2019-03-04T09:53:10.366Z,36.34
2019-03-04T09:55:39.832Z,35.60
2019-03-04T09:58:08.507Z,35.04
2019-03-04T10:00:39.131Z,34.86
2019-03-04T10:03:40.609Z,35.12
2019-03-04T10:06:42.247Z,36.18
2019-03-04T10:09:25.479Z,35.66
2019-03-04T10:11:57.006Z,34.57
2019-03-04T10:14:49.447Z,35.02
2019-03-04T10:17:39.037Z,33.51
2019-03-04T10:20:31.325Z,34.46
2019-03-04T10:23:22.034Z,33.47
2019-03-04T10:26:05.315Z,33.38
2019-03-04T10:28:54.735Z,33.02
2019-03-04T10:31:31.923Z,33.43
2019-03-04T10:34:27.500Z,32.81
2019-03-04T10:39:59.115Z,32.44
2019-03-04T10:42:46.773Z,32.18
2019-03-04T10:45:33.029Z,31.84
2019-03-04T10:48:01.650Z,32.41
2019-03-04T10:50:30.277Z,32.01
2019-03-04T10:52:58.935Z,31.86
2019-03-04T10:55:27.565Z,31.38
2019-03-04T10:57:56.182Z,30.87
2019-03-04T11:00:24.855Z,30.25
2019-03-04T11:02:53.477Z,30.88
2019-03-04T11:05:22.202Z,30.16
2019-03-04T11:07:50.861Z,30.69
2019-03-04T11:10:19.498Z,30.57
2019-03-04T11:12:48.124Z,31.40
2019-03-04T11:15:26.733Z,31.23
2019-03-04T11:17:55.355Z,30.28
2019-03-04T11:20:23.971Z,30.65
2019-03-04T11:22:52.704Z,30.20
2019-03-04T11:25:21.427Z,29.35
2019-03-04T11:27:50.124Z,29.97
2019-03-04T11:30:22.519Z,29.40
2019-03-04T11:32:51.125Z,29.27
2019-03-04T11:35:19.754Z,31.03
2019-03-04T11:37:48.407Z,30.34
2019-03-04T11:40:24.543Z,29.17
2019-03-04T11:42:53.204Z,29.57
2019-03-04T11:45:21.823Z,28.56
2019-03-04T11:47:50.446Z,28.93
2019-03-04T11:50:19.115Z,29.21
2019-03-04T11:52:47.746Z,28.21
2019-03-04T11:55:18.908Z,28.34
2019-03-04T11:57:47.571Z,27.73
2019-03-04T12:00:20.909Z,27.20
2019-03-04T12:02:49.534Z,26.93
2019-03-04T12:05:18.252Z,28.54
2019-03-04T12:07:46.882Z,28.32
2019-03-04T12:10:16.673Z,28.81
2019-03-04T12:12:45.440Z,28.01
2019-03-04T12:15:19.028Z,27.67
2019-03-04T12:17:47.716Z,28.05
2019-03-04T12:20:17.774Z,27.92
2019-03-04T12:22:46.402Z,27.65
2019-03-04T12:25:17.100Z,26.94
2019-03-04T12:27:45.770Z,27.69
2019-03-04T12:30:17.127Z,28.28
2019-03-04T12:32:45.752Z,28.62
2019-03-04T12:35:15.308Z,27.77
2019-03-04T12:37:43.930Z,28.66
2019-03-04T12:40:14.742Z,27.91
2019-03-04T12:42:43.396Z,27.55
2019-03-04T12:45:20.496Z,28.24
2019-03-04T12:47:49.226Z,29.02
2019-03-04T12:50:25.533Z,28.22
2019-03-04T12:52:54.692Z,27.86
2019-03-04T12:55:23.316Z,28.30
2019-03-04T12:57:52.777Z,28.71
2019-03-04T13:00:23.032Z,27.78
2019-03-04T13:02:57.431Z,26.78
2019-03-04T13:05:22.105Z,27.72
2019-03-04T13:07:50.761Z,28.45
2019-03-04T13:10:19.951Z,27.98
2019-03-04T13:12:48.771Z,27.56
2019-03-04T13:15:35.048Z,28.84
2019-03-04T13:18:06.067Z,28.40
2019-03-04T13:20:34.774Z,27.69
2019-03-04T13:23:03.428Z,27.48
2019-03-04T13:25:32.055Z,26.68
2019-03-04T13:28:07.778Z,27.86
2019-03-04T13:30:36.598Z,28.77
2019-03-04T13:33:05.317Z,28.24
2019-03-04T13:35:39.608Z,28.21
2019-03-04T13:38:08.277Z,28.40
2019-03-04T13:40:37.105Z,27.95
2019-03-04T13:43:05.797Z,27.84
2019-03-04T13:45:34.619Z,28.85
2019-03-04T13:48:03.246Z,27.97
2019-03-04T13:50:32.671Z,27.96
2019-03-04T13:53:01.326Z,27.02
2019-03-04T13:55:29.953Z,26.60
2019-03-04T13:57:59.378Z,26.94
2019-03-04T14:00:36.538Z,26.29
2019-03-04T14:03:05.267Z,26.41
2019-03-04T14:05:33.892Z,27.50
2019-03-04T14:08:02.554Z,27.53
2019-03-04T14:10:45.746Z,26.31
2019-03-04T14:13:14.404Z,26.86
2019-03-04T14:15:47.937Z,26.62
2019-03-04T14:18:16.558Z,26.79
2019-03-04T14:20:45.220Z,26.48
2019-03-04T14:23:13.851Z,26.64
2019-03-04T14:25:42.481Z,27.52
2019-03-04T14:28:11.141Z,27.58
2019-03-04T14:30:39.761Z,26.71
2019-03-04T14:33:08.388Z,27.39
2019-03-04T14:35:37.043Z,27.95
2019-03-04T14:38:05.670Z,27.22
2019-03-04T14:40:34.304Z,27.51
2019-03-04T14:43:02.966Z,27.32
2019-03-04T14:45:31.587Z,27.06
2019-03-04T14:48:00.283Z,26.37
2019-03-04T14:50:28.962Z,27.31
2019-03-04T14:52:57.598Z,28.24
2019-03-04T14:55:29.126Z,27.50
2019-03-04T14:57:57.804Z,27.70
2019-03-04T15:00:31.052Z,26.75
2019-03-04T15:02:59.728Z,26.29
2019-03-04T15:05:28.410Z,26.12
2019-03-04T15:07:57.039Z,26.75
2019-03-04T15:10:25.664Z,26.55
2019-03-04T15:12:54.322Z,27.09
2019-03-04T15:15:27.358Z,26.33
2019-03-04T15:17:56.067Z,26.66
2019-03-04T15:20:27.252Z,26.72
2019-03-04T15:22:55.948Z,26.41
2019-03-04T15:25:27.409Z,26.24
2019-03-04T15:27:58.971Z,26.28
2019-03-04T15:30:27.676Z,25.54
2019-03-04T15:32:56.371Z,25.50
2019-03-04T15:35:25.024Z,25.92
2019-03-04T15:37:53.707Z,26.00
2019-03-04T15:40:22.328Z,25.73
2019-03-04T15:42:51.064Z,25.87
2019-03-04T15:45:19.768Z,26.25
2019-03-04T15:47:48.398Z,26.94
2019-03-04T15:50:17.227Z,26.35
2019-03-04T15:52:45.924Z,26.20
2019-03-04T15:55:14.627Z,27.10
2019-03-04T15:57:43.363Z,27.43
2019-03-04T16:00:17.344Z,26.77
2019-03-04T16:02:48.752Z,26.94
2019-03-04T16:05:17.881Z,26.96
2019-03-04T16:07:46.669Z,27.06
2019-03-04T16:10:21.506Z,26.94
2019-03-04T16:12:50.303Z,26.77
2019-03-04T16:15:20.225Z,27.87
2019-03-04T16:17:49.076Z,27.49
2019-03-04T16:20:19.850Z,27.30
2019-03-04T16:22:49.050Z,27.17
2019-03-04T16:25:17.792Z,26.72
2019-03-04T16:27:46.496Z,27.72
2019-03-04T16:30:21.076Z,28.70
2019-03-04T16:32:49.820Z,27.99
2019-03-04T16:35:18.821Z,28.03
2019-03-04T16:37:47.532Z,27.82
2019-03-04T16:40:17.555Z,28.14
2019-03-04T16:42:46.179Z,27.33
2019-03-04T16:45:19.726Z,28.29
2019-03-04T16:47:48.772Z,29.69
2019-03-04T16:50:19.068Z,29.27
2019-03-04T16:52:50.481Z,28.41
2019-03-04T16:55:19.245Z,28.48
2019-03-04T16:57:47.966Z,28.37
2019-03-04T17:01:01.472Z,29.69
2019-03-04T17:03:31.005Z,28.46
2019-03-04T17:05:59.909Z,28.50
2019-03-04T17:08:28.673Z,27.98
2019-03-04T17:10:57.365Z,28.79
2019-03-04T17:13:26.345Z,28.41
2019-03-04T17:15:55.181Z,27.76
2019-03-04T17:18:23.880Z,27.02
2019-03-04T17:20:52.569Z,28.31
2019-03-04T17:23:21.489Z,28.13
2019-03-04T17:25:50.179Z,28.68
2019-03-04T17:28:19.476Z,29.88
2019-03-04T17:30:48.262Z,29.32
2019-03-04T17:33:17.071Z,28.87
2019-03-04T17:35:45.766Z,29.06
2019-03-04T17:38:14.502Z,29.39
2019-03-04T17:40:43.209Z,29.53
2019-03-04T17:43:11.914Z,29.79
2019-03-04T17:45:40.632Z,29.11
2019-03-04T17:48:09.327Z,30.56
2019-03-04T17:50:40.275Z,29.61
2019-03-04T17:53:11.110Z,29.96
2019-03-04T17:55:39.807Z,29.71
2019-03-04T17:58:08.498Z,30.51
2019-03-04T18:00:38.912Z,30.28
2019-03-04T18:03:07.817Z,30.03
2019-03-04T18:05:36.507Z,29.12
2019-03-04T18:08:05.337Z,29.98
2019-03-04T18:10:34.029Z,29.14
2019-03-04T18:13:05.522Z,29.68
2019-03-04T18:15:41.612Z,29.47
2019-03-04T18:18:10.312Z,29.36
2019-03-04T18:20:39.017Z,29.08
2019-03-04T18:23:07.746Z,28.42
2019-03-04T18:25:45.254Z,27.66
2019-03-04T18:28:19.521Z,28.07
2019-03-04T18:30:57.155Z,28.52
2019-03-04T18:33:34.560Z,28.52
2019-03-04T18:36:09.114Z,27.53
2019-03-04T18:38:46.737Z,27.81
2019-03-04T18:41:34.823Z,28.21
2019-03-04T18:44:06.453Z,28.28
2019-03-04T18:46:52.992Z,27.96
2019-03-04T18:49:21.791Z,27.54
2019-03-04T18:51:50.517Z,27.48
2019-03-04T18:54:19.208Z,27.57
2019-03-04T18:56:48.174Z,26.92
2019-03-04T18:59:16.882Z,27.28
2019-03-04T19:01:45.675Z,27.78
2019-03-04T19:04:14.443Z,27.86
2019-03-04T19:06:44.597Z,27.80
2019-03-04T19:09:13.594Z,27.83
2019-03-04T19:11:42.336Z,27.28
2019-03-04T19:14:11.134Z,27.49
2019-03-04T19:16:39.828Z,27.05
2019-03-04T19:19:08.676Z,26.78
2019-03-04T19:21:37.390Z,26.79
2019-03-04T19:24:06.083Z,27.68
2019-03-04T19:26:34.927Z,27.22
2019-03-04T19:29:03.633Z,26.98
2019-03-04T19:31:32.433Z,26.92
2019-03-04T19:34:01.157Z,27.54
2019-03-04T19:36:29.861Z,26.93
2019-03-04T19:38:58.662Z,26.87
2019-03-04T19:41:27.446Z,26.85
2019-03-04T19:43:56.246Z,26.79
2019-03-04T19:46:25.033Z,27.33
2019-03-04T19:48:53.767Z,26.81
2019-03-04T19:51:22.476Z,26.63
2019-03-04T19:53:51.367Z,27.10
2019-03-04T19:56:20.220Z,26.98
2019-03-04T19:58:48.908Z,27.22
2019-03-04T20:01:17.632Z,26.79
2019-03-04T20:03:46.348Z,27.00
2019-03-04T20:06:15.055Z,26.73
2019-03-04T20:08:44.449Z,27.33
2019-03-04T20:11:13.187Z,27.76
2019-03-04T20:13:41.908Z,28.12
2019-03-04T20:16:10.612Z,28.16
2019-03-04T20:18:39.349Z,28.29
2019-03-04T20:21:08.574Z,29.29
2019-03-04T20:23:37.240Z,29.04
2019-03-04T20:26:06.236Z,28.66
2019-03-04T20:28:34.940Z,29.84
2019-03-04T20:31:03.637Z,29.62
2019-03-04T20:33:32.397Z,29.46
2019-03-04T20:36:01.029Z,30.13
2019-03-04T20:38:35.923Z,29.82
2019-03-04T20:41:04.656Z,29.37
2019-03-04T20:43:33.293Z,29.19
2019-03-04T20:46:01.990Z,29.09
2019-03-04T20:48:30.730Z,29.62
2019-03-04T20:51:00.237Z,30.11
2019-03-04T20:53:28.933Z,30.65
2019-03-04T20:55:57.678Z,29.92
2019-03-04T20:58:26.528Z,29.77
2019-03-04T21:00:55.165Z,29.65
2019-03-04T21:03:23.831Z,29.90
2019-03-04T21:05:52.542Z,29.45
2019-03-04T21:08:21.335Z,29.15
2019-03-04T21:10:51.176Z,28.62
2019-03-04T21:13:23.649Z,29.43
2019-03-04T21:15:52.645Z,28.50
2019-03-04T21:18:21.414Z,28.67
2019-03-04T21:20:50.509Z,28.83
2019-03-04T21:23:19.212Z,28.05
2019-03-04T21:25:51.955Z,28.63
2019-03-04T21:28:37.785Z,28.47
2019-03-04T21:31:18.078Z,28.03
2019-03-04T21:33:58.104Z,28.46
2019-03-04T21:36:47.509Z,28.75
2019-03-04T21:39:19.199Z,30.72
2019-03-04T21:41:50.723Z,30.23
2019-03-04T21:44:47.759Z,30.36
2019-03-04T21:47:27.869Z,30.49
2019-03-04T21:49:56.557Z,30.44
2019-03-04T21:52:36.287Z,30.78
2019-03-04T21:55:16.609Z,31.42
2019-03-04T21:57:47.845Z,30.06
2019-03-04T22:00:23.758Z,29.64
2019-03-04T22:03:04.066Z,30.97
2019-03-04T22:05:32.729Z,29.67
2019-03-04T22:08:01.370Z,29.28
2019-03-04T22:10:30.110Z,29.81
2019-03-04T22:12:58.742Z,28.86
2019-03-04T22:15:27.962Z,29.10
2019-03-04T22:17:56.577Z,29.79
2019-03-04T22:20:25.453Z,29.12
2019-03-04T22:22:54.177Z,29.68
2019-03-04T22:25:22.801Z,31.05
2019-03-04T22:27:51.509Z,30.84
2019-03-04T22:30:20.353Z,33.12
2019-03-04T22:32:49.180Z,32.30
2019-03-04T22:35:17.932Z,32.12
2019-03-04T22:37:46.668Z,33.52
2019-03-04T22:40:20.330Z,33.58
2019-03-04T22:42:48.986Z,34.96
2019-03-04T22:45:19.322Z,34.45
2019-03-04T22:47:49.142Z,34.88
2019-03-04T22:50:19.730Z,34.62
2019-03-04T22:52:48.459Z,34.15
2019-03-04T22:55:28.375Z,35.50
2019-03-04T22:57:56.993Z,35.92
2019-03-04T23:00:54.173Z,35.52
2019-03-04T23:03:25.132Z,35.47
2019-03-04T23:06:02.395Z,37.03
2019-03-04T23:08:31.040Z,36.50
2019-03-04T23:10:59.667Z,37.95
2019-03-04T23:13:46.003Z,37.90
2019-03-04T23:16:17.923Z,38.50
2019-03-04T23:18:46.539Z,38.17
2019-03-04T23:21:15.197Z,37.79
2019-03-04T23:23:43.825Z,37.50
2019-03-04T23:26:12.469Z,36.87
2019-03-04T23:28:41.202Z,36.96
2019-03-04T23:31:09.817Z,37.45
2019-03-04T23:33:38.447Z,37.14
2019-03-04T23:36:07.130Z,37.48
2019-03-04T23:38:35.753Z,36.87
2019-03-04T23:41:04.380Z,36.85
2019-03-04T23:43:33.534Z,36.47
2019-03-04T23:46:02.299Z,36.54
